Time;durP1;ratioP1;P1;durP2;ratioP2;P2;SDS_P1;SDS_P2;PMS_P1;PMS_P2;Temp;Humidity;BMP_temperature;BMP_pressure;BME280_temperature;BME280_humidity;BME280_pressure;Samples;Min_cycle;Max_cycle;Signal;HPM_P1;HPM_P2
2021/03/12 00:00:26;;;;;;;4.05;1.95;;;;;;;14.87;39.54;99641.44;5072193;28;20044;-82
2021/03/12 00:02:52;;;;;;;7.97;2.20;;;;;;;15.18;39.01;99634.06;5072250;28;20024;-82
2021/03/12 00:05:19;;;;;;;6.25;1.60;;;;;;;14.73;40.05;99629.41;5072345;28;20039;-82
2021/03/12 00:07:44;;;;;;;4.90;1.70;;;;;;;14.88;39.62;99628.50;5071111;28;20024;-82
2021/03/12 00:10:13;;;;;;;5.75;1.83;;;;;;;14.88;39.52;99631.25;5070978;28;20367;-82
2021/03/12 00:12:39;;;;;;;3.97;1.87;;;;;;;15.00;39.16;99620.03;5071354;28;20079;-83
2021/03/12 00:15:11;;;;;;;6.50;2.25;;;;;;;15.08;39.23;99607.97;5070687;28;20399;-82
2021/03/12 00:17:37;;;;;;;7.65;2.30;;;;;;;15.16;38.99;99615.19;5072310;28;20486;-82
2021/03/12 00:20:16;;;;;;;4.43;1.92;;;;;;;15.03;39.43;99622.03;5072155;28;20032;-82
2021/03/12 00:22:43;;;;;;;7.47;3.38;;;;;;;15.18;38.98;99623.06;5071394;28;20025;-83
2021/03/12 00:25:12;;;;;;;7.75;2.13;;;;;;;15.17;38.89;99618.72;5072102;28;20414;-83
2021/03/12 00:27:39;;;;;;;9.15;2.10;;;;;;;15.13;39.04;99620.63;5072185;28;20112;-82
2021/03/12 00:30:06;;;;;;;6.10;1.73;;;;;;;15.23;38.79;99615.28;5072101;28;20025;-82
2021/03/12 00:32:32;;;;;;;7.60;1.83;;;;;;;15.26;38.80;99610.97;5073413;28;20016;-82
2021/03/12 00:34:58;;;;;;;5.82;2.45;;;;;;;15.28;38.76;99611.44;5075955;28;20059;-82
2021/03/12 00:37:23;;;;;;;5.82;1.58;;;;;;;15.08;39.13;99601.69;5075783;28;20059;-83
2021/03/12 00:39:49;;;;;;;5.82;1.45;;;;;;;15.32;38.87;99611.47;5075788;28;20033;-82
2021/03/12 00:42:15;;;;;;;2.72;1.40;;;;;;;15.25;39.04;99604.69;5075806;28;20032;-82
2021/03/12 00:44:40;;;;;;;4.13;2.10;;;;;;;15.15;39.44;99612.81;5075869;28;20044;-82
2021/03/12 00:47:06;;;;;;;3.55;1.52;;;;;;;15.34;39.13;99601.69;5075765;28;20517;-82
2021/03/12 00:49:32;;;;;;;5.57;1.70;;;;;;;15.27;39.33;99604.34;5075653;28;20415;-83
2021/03/12 00:51:57;;;;;;;5.35;1.65;;;;;;;15.45;39.12;99612.81;5075668;28;20029;-83
2021/03/12 00:54:23;;;;;;;5.82;2.33;;;;;;;15.37;39.41;99600.94;5075460;28;20411;-82
2021/03/12 00:56:48;;;;;;;2.92;1.45;;;;;;;15.28;39.64;99616.94;5075575;28;20033;-83
2021/03/12 00:59:14;;;;;;;2.80;1.30;;;;;;;15.40;39.22;99605.69;5075535;28;20107;-82
2021/03/12 01:01:40;;;;;;;7.90;2.83;;;;;;;15.22;39.47;99613.69;5075286;28;20052;-83
2021/03/12 01:04:05;;;;;;;6.25;1.38;;;;;;;15.29;39.50;99607.50;5075279;28;20094;-82
2021/03/12 01:06:31;;;;;;;4.65;1.83;;;;;;;15.55;38.81;99601.94;5090924;28;20040;-82
2021/03/12 01:08:56;;;;;;;5.70;1.42;;;;;;;15.51;39.11;99592.06;5075297;28;20035;-83
2021/03/12 01:11:22;;;;;;;4.70;1.50;;;;;;;15.42;39.04;99584.09;5075282;28;20074;-82
2021/03/12 01:13:48;;;;;;;4.18;1.48;;;;;;;15.46;38.93;99579.41;5074449;28;20020;-83
2021/03/12 01:16:13;;;;;;;3.38;1.00;;;;;;;15.50;38.70;99576.72;5073192;28;20039;-82
2021/03/12 01:18:39;;;;;;;3.20;1.40;;;;;;;15.53;38.66;99582.25;5075191;28;20048;-83
2021/03/12 01:21:05;;;;;;;2.47;0.90;;;;;;;15.34;38.92;99554.09;5075103;28;20424;-82
2021/03/12 01:23:31;;;;;;;3.40;1.10;;;;;;;15.16;39.22;99576.66;5075011;28;20024;-82
2021/03/12 01:25:56;;;;;;;4.97;1.30;;;;;;;14.92;39.63;99561.38;5075047;28;20071;-82
2021/03/12 01:28:22;;;;;;;1.65;0.93;;;;;;;14.98;39.48;99550.88;5075011;28;20047;-82
2021/03/12 01:30:49;;;;;;;4.30;1.10;;;;;;;15.39;38.75;99542.75;5074960;28;20033;-82
2021/03/12 01:33:15;;;;;;;4.80;1.25;;;;;;;15.16;39.19;99551.09;5074944;28;20032;-82
2021/03/12 01:35:41;;;;;;;7.15;1.70;;;;;;;15.04;39.43;99546.63;5074853;28;20550;-82
2021/03/12 01:38:07;;;;;;;2.97;1.40;;;;;;;15.05;39.22;99536.41;5074809;28;20116;-83
2021/03/12 01:40:35;;;;;;;3.13;1.83;;;;;;;14.84;39.56;99545.94;5074473;28;20047;-82
2021/03/12 01:43:02;;;;;;;2.83;1.05;;;;;;;15.06;39.35;99543.50;5074331;28;20048;-82
2021/03/12 01:45:37;;;;;;;2.30;1.10;;;;;;;14.84;39.63;99536.91;5072562;28;20445;-81
2021/03/12 01:48:07;;;;;;;1.95;0.80;;;;;;;14.97;39.45;99536.31;5074668;28;20364;-82
2021/03/12 01:50:34;;;;;;;2.97;1.45;;;;;;;14.83;39.76;99519.59;5074606;28;20036;-82
2021/03/12 01:52:59;;;;;;;4.43;1.25;;;;;;;14.82;39.78;99520.78;5073183;28;20039;-82
2021/03/12 01:55:33;;;;;;;3.47;1.20;;;;;;;14.97;39.35;99519.03;5074500;28;20032;-82
2021/03/12 01:58:01;;;;;;;5.68;1.58;;;;;;;14.82;39.77;99520.78;5074549;28;20053;-82
2021/03/12 02:00:27;;;;;;;5.32;1.58;;;;;;;14.90;39.49;99522.47;5074130;28;20437;-83
2021/03/12 02:02:54;;;;;;;2.67;1.30;;;;;;;14.93;39.55;99516.22;5074271;28;20509;-82
2021/03/12 02:05:19;;;;;;;3.67;1.40;;;;;;;14.83;39.81;99519.59;5074451;28;20032;-83
2021/03/12 02:07:45;;;;;;;4.13;1.85;;;;;;;14.88;39.68;99526.72;5072872;28;20124;-82
2021/03/12 02:10:17;;;;;;;2.72;1.40;;;;;;;14.69;40.06;99513.91;5072937;28;20029;-82
2021/03/12 02:12:59;;;;;;;4.68;1.50;;;;;;;14.74;40.19;99510.84;5072862;28;20032;-82
2021/03/12 02:15:49;;;;;;;3.80;1.50;;;;;;;14.62;40.36;99505.53;5074143;28;20389;-82
2021/03/12 02:18:30;;;;;;;7.40;1.48;;;;;;;14.49;40.48;99504.94;5073200;28;20063;-82
2021/03/12 02:21:07;;;;;;;2.78;1.15;;;;;;;14.66;40.17;99506.38;5074056;28;20475;-82
2021/03/12 02:23:45;;;;;;;3.47;1.10;;;;;;;14.64;40.17;99500.47;5073898;28;20028;-81
2021/03/12 02:26:31;;;;;;;2.28;1.05;;;;;;;14.45;40.28;99493.09;5072577;28;20028;-82
2021/03/12 02:29:00;;;;;;;2.05;0.90;;;;;;;14.74;39.97;99493.56;5061747;28;20050;-82
2021/03/12 02:31:27;;;;;;;3.25;1.17;;;;;;;14.54;40.15;99492.84;5073716;28;20028;-82
2021/03/12 02:33:55;;;;;;;1.73;0.93;;;;;;;14.46;40.19;99482.91;5072374;28;20645;-82
2021/03/12 02:36:22;;;;;;;1.30;0.88;;;;;;;14.71;40.13;99495.06;5073566;28;20078;-82
2021/03/12 02:38:50;;;;;;;3.17;1.20;;;;;;;15.10;38.97;99495.59;5073670;28;20122;-82
2021/03/12 02:41:18;;;;;;;2.47;0.90;;;;;;;14.85;39.78;99495.28;5073207;28;20082;-82
2021/03/12 02:43:45;;;;;;;1.45;0.77;;;;;;;14.96;39.57;99484.41;5073326;28;20107;-82
2021/03/12 02:46:11;;;;;;;1.65;1.00;;;;;;;14.95;39.49;99483.63;5073455;28;20504;-82
2021/03/12 02:48:37;;;;;;;2.13;1.02;;;;;;;15.29;38.97;99475.41;5073393;28;20021;-82
2021/03/12 02:51:07;;;;;;;3.05;0.95;;;;;;;14.80;39.84;99472.78;5073354;28;20499;-82
2021/03/12 02:53:34;;;;;;;2.45;0.80;;;;;;;14.52;40.57;99464.94;5073209;28;20095;-82
2021/03/12 02:56:01;;;;;;;1.98;1.10;;;;;;;14.52;40.70;99448.47;5073183;28;20548;-82
2021/03/12 02:58:27;;;;;;;0.93;0.45;;;;;;;14.86;40.18;99450.09;5073178;28;20036;-82
2021/03/12 03:00:54;;;;;;;3.30;1.38;;;;;;;15.13;39.21;99441.81;5072989;28;20434;-82
2021/03/12 03:03:21;;;;;;;0.93;0.50;;;;;;;15.08;39.23;99442.91;5073095;28;20028;-82
2021/03/12 03:05:47;;;;;;;1.08;0.57;;;;;;;14.61;39.98;99457.22;5072486;28;20491;-82
2021/03/12 03:08:14;;;;;;;2.83;1.02;;;;;;;14.98;39.10;99460.88;5073000;28;20027;-82
2021/03/12 03:10:42;;;;;;;3.85;0.80;;;;;;;14.99;38.83;99465.22;5073064;28;20364;-82
2021/03/12 03:13:09;;;;;;;3.35;0.80;;;;;;;15.10;38.75;99456.28;5073065;28;20056;-82
2021/03/12 03:15:36;;;;;;;4.07;1.27;;;;;;;15.18;38.50;99467.00;5073032;28;20024;-82
2021/03/12 03:18:03;;;;;;;2.90;0.85;;;;;;;14.51;39.57;99460.59;5073144;28;20025;-82
2021/03/12 03:20:29;;;;;;;5.15;1.38;;;;;;;14.56;39.85;99455.56;5072865;28;20099;-82
2021/03/12 03:22:55;;;;;;;2.63;1.10;;;;;;;14.46;40.09;99450.72;5072728;28;20025;-82
2021/03/12 03:25:21;;;;;;;4.00;1.20;;;;;;;14.36;40.21;99446.63;5072761;28;20024;-82
2021/03/12 03:27:47;;;;;;;4.32;1.10;;;;;;;14.24;40.75;99438.59;5072762;28;20115;-82
2021/03/12 03:30:15;;;;;;;2.90;1.27;;;;;;;14.24;40.58;99438.59;5072782;28;20153;-82
2021/03/12 03:32:41;;;;;;;3.70;1.30;;;;;;;14.34;40.71;99432.44;5072688;28;20046;-82
2021/03/12 03:35:10;;;;;;;7.05;1.55;;;;;;;14.42;40.35;99425.91;5072593;28;20033;-82
2021/03/12 03:37:35;;;;;;;10.35;2.50;;;;;;;14.37;40.79;99426.22;5072695;28;20027;-82
2021/03/12 03:40:05;;;;;;;3.60;1.30;;;;;;;14.35;40.96;99434.03;5071287;28;20021;-82
2021/03/12 03:42:32;;;;;;;3.47;1.55;;;;;;;14.38;40.75;99424.28;5071365;28;20033;-82
2021/03/12 03:44:58;;;;;;;7.43;1.20;;;;;;;14.39;40.70;99420.38;5072495;28;20036;-82
2021/03/12 03:47:28;;;;;;;5.70;1.92;;;;;;;14.32;41.25;99414.75;5072508;28;20475;-82
2021/03/12 03:49:53;;;;;;;3.92;1.73;;;;;;;14.48;40.83;99395.38;5072517;28;20028;-83
2021/03/12 03:52:24;;;;;;;3.72;1.30;;;;;;;14.39;41.21;99404.66;5071168;28;20051;-82
2021/03/12 03:54:51;;;;;;;4.35;1.40;;;;;;;14.47;41.03;99404.78;5072519;28;20029;-82
2021/03/12 03:57:20;;;;;;;3.10;1.60;;;;;;;14.85;40.26;99393.53;5072566;28;20542;-82
2021/03/12 03:59:47;;;;;;;8.80;2.05;;;;;;;14.90;40.41;99403.41;5072058;28;20033;-82
2021/03/12 04:02:16;;;;;;;6.90;2.05;;;;;;;15.05;40.13;99394.16;5071157;28;20031;-81
2021/03/12 04:04:48;;;;;;;3.17;1.40;;;;;;;15.14;40.02;99391.13;5070999;28;20056;-82
2021/03/12 04:07:14;;;;;;;6.93;2.08;;;;;;;15.12;39.96;99394.25;5073372;28;20063;-82
2021/03/12 04:09:41;;;;;;;4.13;1.30;;;;;;;15.14;39.95;99402.13;5076489;28;20029;-82
2021/03/12 04:12:08;;;;;;;4.63;1.20;;;;;;;15.14;40.04;99386.41;5075214;28;20368;-82
2021/03/12 04:14:34;;;;;;;1.67;0.88;;;;;;;15.14;40.24;99394.66;5076462;28;20030;-82
2021/03/12 04:17:01;;;;;;;3.28;1.90;;;;;;;15.14;40.11;99391.91;5076343;28;20025;-82
2021/03/12 04:19:28;;;;;;;3.45;1.30;;;;;;;15.21;39.96;99391.19;5076397;28;20029;-81
2021/03/12 04:21:54;;;;;;;3.33;1.38;;;;;;;15.09;40.52;99383.97;5076253;28;20017;-82
2021/03/12 04:24:20;;;;;;;4.75;1.42;;;;;;;15.22;40.08;99379.03;5076227;28;20036;-82
2021/03/12 04:26:46;;;;;;;2.90;1.10;;;;;;;15.39;39.54;99381.16;5076159;28;20029;-82
2021/03/12 04:29:12;;;;;;;5.70;1.02;;;;;;;15.31;39.91;99375.97;5076135;28;20119;-82
2021/03/12 04:31:38;;;;;;;4.25;1.13;;;;;;;15.20;39.97;99373.09;5076041;28;20024;-82
2021/03/12 04:34:04;;;;;;;2.00;0.98;;;;;;;14.92;40.80;99379.06;5074679;28;20054;-82
2021/03/12 04:36:31;;;;;;;2.38;1.10;;;;;;;15.19;40.20;99374.28;5075963;28;20144;-82
2021/03/12 04:38:57;;;;;;;2.60;0.90;;;;;;;15.06;40.46;99364.69;5075779;28;20020;-82
2021/03/12 04:41:23;;;;;;;1.60;0.80;;;;;;;15.19;39.98;99338.50;5074719;28;20494;-82
2021/03/12 04:43:48;;;;;;;1.30;0.60;;;;;;;15.27;39.78;99332.69;5075515;28;20028;-82
2021/03/12 04:46:14;;;;;;;5.32;1.25;;;;;;;14.94;40.29;99330.75;5075861;28;20031;-83
2021/03/12 04:48:42;;;;;;;1.27;0.63;;;;;;;15.14;39.57;99341.59;5075762;28;20375;-82
2021/03/12 04:51:09;;;;;;;1.73;0.90;;;;;;;15.10;39.34;99347.03;5075712;28;20017;-82
2021/03/12 04:53:38;;;;;;;3.35;0.65;;;;;;;15.10;39.20;99351.75;5075679;28;20078;-82
2021/03/12 04:56:04;;;;;;;1.87;0.80;;;;;;;14.86;39.62;99344.81;5075010;28;20486;-81
2021/03/12 04:58:30;;;;;;;3.13;0.82;;;;;;;14.87;39.54;99352.69;5073326;28;20098;-82
2021/03/12 05:00:56;;;;;;;1.20;0.73;;;;;;;14.96;39.22;99355.94;5075069;28;20040;-82
2021/03/12 05:03:22;;;;;;;2.30;0.68;;;;;;;14.97;39.00;99368.53;5074106;28;20044;-82
2021/03/12 05:05:50;;;;;;;1.15;0.60;;;;;;;14.92;38.79;99379.84;5075473;28;20029;-82
2021/03/12 05:08:17;;;;;;;1.48;0.90;;;;;;;14.68;39.49;99372.09;5075376;28;20033;-82
2021/03/12 05:11:06;;;;;;;1.50;0.50;;;;;;;14.87;38.96;99374.69;5074556;28;20036;-82
2021/03/12 05:13:32;;;;;;;;;;;;;;;14.49;39.73;99361.22;5067599;28;20051;-82
2021/03/12 05:15:57;;;;;;;1.27;0.60;;;;;;;14.87;38.88;99371.94;5075134;28;19912;-82
2021/03/12 05:18:23;;;;;;;0.30;0.30;;;;;;;14.75;39.03;99366.69;5074169;28;20097;-82
2021/03/12 05:20:50;;;;;;;0.70;0.70;;;;;;;14.61;39.47;99372.81;5073858;28;20032;-81
2021/03/12 05:23:17;;;;;;;1.30;0.60;;;;;;;14.35;39.47;99384.56;5073763;28;20029;-82
2021/03/12 05:25:43;;;;;;;0.90;0.40;;;;;;;14.15;39.94;99378.41;5075120;28;20104;-82
2021/03/12 05:28:09;;;;;;;1.35;0.40;;;;;;;14.38;39.38;99375.59;5075035;28;20436;-82
2021/03/12 05:30:35;;;;;;;0.30;0.30;;;;;;;14.50;39.21;99384.81;5074987;28;20028;-82
2021/03/12 05:33:00;;;;;;;0.73;0.40;;;;;;;14.41;39.24;99379.56;5074831;28;20048;-81
2021/03/12 05:35:26;;;;;;;0.15;0.15;;;;;;;14.28;39.54;99381.75;5074982;28;20033;-82
2021/03/12 05:37:52;;;;;;;1.65;0.57;;;;;;;14.24;39.66;99380.88;5074799;28;20051;-82
2021/03/12 05:40:19;;;;;;;0.75;0.32;;;;;;;14.38;39.27;99389.34;5074821;28;20040;-82
2021/03/12 05:42:47;;;;;;;1.95;0.40;;;;;;;13.94;39.95;99389.06;5074753;28;20482;-82
2021/03/12 05:45:12;;;;;;;1.13;0.40;;;;;;;13.97;39.83;99404.78;5074640;28;20029;-81
2021/03/12 05:47:38;;;;;;;0.50;0.50;;;;;;;14.03;39.76;99406.06;5074684;28;20078;-82
2021/03/12 05:50:06;;;;;;;1.05;0.40;;;;;;;13.74;40.17;99393.03;5073211;28;20074;-82
2021/03/12 05:52:32;;;;;;;0.45;0.40;;;;;;;13.87;39.94;99410.91;5073223;28;20026;-82
2021/03/12 05:55:00;;;;;;;0.68;0.40;;;;;;;13.79;40.01;99403.72;5074511;28;20082;-82
2021/03/12 05:57:29;;;;;;;1.27;0.40;;;;;;;13.68;40.27;99384.34;5074463;28;20052;-82
2021/03/12 05:59:54;;;;;;;0.47;0.40;;;;;;;13.71;40.06;99391.81;5072596;28;20094;-83
2021/03/12 06:02:20;;;;;;;2.88;0.70;;;;;;;13.48;40.44;99385.53;5074404;28;20029;-82
2021/03/12 06:04:46;;;;;;;2.25;0.68;;;;;;;13.44;40.55;99385.47;5074288;28;20033;-82
2021/03/12 06:07:16;;;;;;;1.50;0.60;;;;;;;13.28;40.84;99390.25;5074226;28;20386;-81
2021/03/12 06:09:42;;;;;;;2.53;0.57;;;;;;;13.29;40.78;99403.59;5074261;28;20074;-82
2021/03/12 06:12:10;;;;;;;3.60;0.90;;;;;;;13.10;41.34;99402.81;5074220;28;20066;-81
2021/03/12 06:14:52;;;;;;;0.55;0.40;;;;;;;12.58;42.14;99398.63;5072443;28;20032;-82
2021/03/12 06:17:45;;;;;;;1.95;0.70;;;;;;;13.05;41.31;99401.94;5074041;28;20040;-82
2021/03/12 06:20:19;;;;;;;1.55;0.47;;;;;;;13.19;41.13;99404.19;5074074;28;20066;-82
2021/03/12 06:22:48;;;;;;;1.63;0.70;;;;;;;13.23;40.80;99405.09;5073875;28;20070;-82
2021/03/12 06:25:16;;;;;;;3.13;0.80;;;;;;;13.26;40.67;99404.34;5072676;28;20093;-82
2021/03/12 06:27:42;;;;;;;2.65;0.80;;;;;;;13.26;40.72;99406.31;5072460;28;20028;-82
2021/03/12 06:30:10;;;;;;;4.38;1.70;;;;;;;13.05;41.33;99407.44;5073210;28;20402;-82
2021/03/12 06:32:40;;;;;;;2.45;1.33;;;;;;;13.19;40.77;99406.13;5073748;28;20029;-82
2021/03/12 06:35:07;;;;;;;3.05;1.13;;;;;;;13.29;40.62;99411.03;5073749;28;20028;-82
2021/03/12 06:37:35;;;;;;;2.45;0.85;;;;;;;13.32;40.57;99407.59;5073554;28;20028;-82
2021/03/12 06:40:14;;;;;;;1.85;0.80;;;;;;;13.13;40.88;99411.09;5066804;28;20048;-81
2021/03/12 06:43:00;;;;;;;2.28;0.80;;;;;;;13.14;40.87;99409.94;5053657;28;20060;-82
2021/03/12 06:45:26;;;;;;;3.45;0.80;;;;;;;13.07;41.20;99409.81;5052118;28;20442;-82
2021/03/12 06:47:54;;;;;;;4.13;0.93;;;;;;;13.29;40.58;99417.31;5067449;28;20054;-82
2021/03/12 06:50:20;;;;;;;2.47;0.80;;;;;;;13.29;40.66;99417.31;5053360;28;20136;-82
2021/03/12 06:52:46;;;;;;;6.30;1.17;;;;;;;13.45;40.11;99428.22;5053415;28;20029;-82
2021/03/12 06:55:11;;;;;;;4.35;0.60;;;;;;;13.12;40.96;99425.97;5051842;28;20040;-82
2021/03/12 06:57:37;;;;;;;4.47;1.45;;;;;;;13.43;40.36;99433.25;5051949;28;20115;-82
2021/03/12 07:00:07;;;;;;;3.63;0.63;;;;;;;13.49;40.17;99426.31;5053154;28;20124;-81
2021/03/12 07:02:35;;;;;;;5.63;0.93;;;;;;;13.50;40.15;99421.63;5053293;28;20033;-81
2021/03/12 07:05:01;;;;;;;3.33;1.10;;;;;;;13.47;40.21;99434.13;5053193;28;20486;-81
2021/03/12 07:07:36;;;;;;;3.00;0.80;;;;;;;13.45;40.39;99441.13;5053038;28;20078;-83
2021/03/12 07:10:07;;;;;;;3.90;0.95;;;;;;;13.42;40.41;99430.88;5057537;28;20021;-81
2021/03/12 07:12:52;;;;;;;3.33;0.80;;;;;;;13.29;40.90;99425.56;5071920;28;20031;-80
2021/03/12 07:15:19;;;;;;;6.10;1.08;;;;;;;13.47;40.58;99416.88;5072927;28;20033;-81
2021/03/12 07:17:46;;;;;;;4.40;1.35;;;;;;;13.40;40.59;99423.03;5072997;28;20036;-82
2021/03/12 07:20:14;;;;;;;4.93;1.40;;;;;;;13.39;40.74;99421.44;5072863;28;20028;-79
2021/03/12 07:22:42;;;;;;;4.72;1.23;;;;;;;13.38;41.03;99430.06;5072828;28;20024;-81
2021/03/12 07:25:08;;;;;;;5.80;1.58;;;;;;;13.31;41.33;99422.47;5072753;28;20098;-79
2021/03/12 07:27:38;;;;;;;6.30;1.75;;;;;;;13.40;41.13;99411.25;5072748;28;20024;-80
2021/03/12 07:30:07;;;;;;;8.00;1.30;;;;;;;13.21;41.71;99417.56;5072746;28;20387;-82
2021/03/12 07:32:34;;;;;;;4.90;0.95;;;;;;;13.49;41.39;99414.56;5072379;28;20578;-79
2021/03/12 07:35:01;;;;;;;6.35;1.45;;;;;;;13.57;41.20;99410.78;5072565;28;20041;-80
2021/03/12 07:37:27;;;;;;;11.88;2.33;;;;;;;13.57;41.57;99413.53;5072731;28;20029;-81
2021/03/12 07:39:55;;;;;;;4.97;1.77;;;;;;;13.39;42.20;99415.16;5072682;28;20024;-82
2021/03/12 07:42:25;;;;;;;2.97;1.77;;;;;;;13.48;42.08;99418.47;5070643;28;20032;-82
2021/03/12 07:44:52;;;;;;;12.07;1.63;;;;;;;13.58;41.97;99421.41;5070410;28;20530;-83
2021/03/12 07:47:24;;;;;;;9.88;2.30;;;;;;;13.60;41.96;99412.78;5072559;28;20102;-82
2021/03/12 07:49:49;;;;;;;8.57;2.03;;;;;;;13.78;41.68;99424.88;5072527;28;20028;-82
2021/03/12 07:52:16;;;;;;;6.60;1.70;;;;;;;13.89;41.25;99423.09;5071271;28;20035;-82
2021/03/12 07:54:42;;;;;;;9.20;1.67;;;;;;;13.78;41.78;99416.66;5070872;28;20550;-82
2021/03/12 07:57:15;;;;;;;6.90;1.48;;;;;;;13.76;41.90;99409.94;5071473;28;20391;-81
2021/03/12 07:59:47;;;;;;;12.43;2.28;;;;;;;13.80;41.50;99421.78;5072419;28;20056;-81
2021/03/12 08:02:20;;;;;;;13.95;1.77;;;;;;;14.19;41.03;99403.19;5071013;28;20040;-82
2021/03/12 08:04:47;;;;;;;8.10;1.75;;;;;;;13.91;41.60;99416.47;5071944;28;20387;-81
2021/03/12 08:07:19;;;;;;;7.75;2.50;;;;;;;14.08;41.31;99404.97;5070929;28;20471;-81
2021/03/12 08:09:50;;;;;;;7.45;2.10;;;;;;;13.90;41.65;99407.41;5067845;28;20025;-82
2021/03/12 08:12:32;;;;;;;12.25;1.40;;;;;;;14.05;41.28;99413.94;5072023;28;20077;-80
2021/03/12 08:15:23;;;;;;;5.05;1.25;;;;;;;14.09;41.19;99418.34;5071961;28;20033;-80
2021/03/12 08:17:58;;;;;;;12.15;1.75;;;;;;;14.34;40.92;99421.47;5069774;28;20032;-82
2021/03/12 08:20:40;;;;;;;6.32;1.95;;;;;;;13.82;42.06;99390.03;5071857;28;20111;-81
2021/03/12 08:23:07;;;;;;;4.63;1.20;;;;;;;14.01;41.75;99415.84;5052365;28;20025;-80
2021/03/12 08:25:33;;;;;;;8.43;1.20;;;;;;;14.33;41.02;99417.13;5052137;28;20471;-80
2021/03/12 08:27:59;;;;;;;5.78;1.42;;;;;;;13.66;42.38;99424.25;5055868;28;20035;-88
2021/03/12 08:30:25;;;;;;;6.70;1.83;;;;;;;14.14;41.47;99426.28;5055713;28;20024;-85
2021/03/12 08:32:51;;;;;;;6.32;1.40;;;;;;;14.09;41.75;99403.81;5056100;28;20484;-84
2021/03/12 08:35:32;;;;;;;7.35;1.42;;;;;;;13.93;41.84;99419.63;5055868;28;20031;-92
2021/03/12 08:38:01;;;;;;;4.28;1.48;;;;;;;14.44;40.83;99414.56;5056967;28;20024;-88
2021/03/12 08:40:28;;;;;;;9.63;1.83;;;;;;;14.40;40.77;99416.44;5053713;28;20383;-84
2021/03/12 08:43:04;;;;;;;6.60;1.55;;;;;;;14.20;41.35;99417.69;5053754;28;20406;-84
2021/03/12 08:45:39;;;;;;;13.75;1.65;;;;;;;14.29;41.15;99419.03;5054886;28;20040;-85
2021/03/12 08:48:12;;;;;;;8.20;1.38;;;;;;;14.24;41.36;99415.81;5060478;28;20036;-88
2021/03/12 08:50:41;;;;;;;7.63;1.45;;;;;;;14.42;40.91;99412.16;5070504;28;20028;-89
2021/03/12 08:53:07;;;;;;;11.00;2.97;;;;;;;14.59;40.67;99404.59;5071566;28;20021;-83
2021/03/12 08:55:33;;;;;;;11.27;1.83;;;;;;;14.67;40.34;99398.00;5075601;28;20033;-83
2021/03/12 08:58:26;;;;;;;7.07;2.28;;;;;;;14.29;40.97;99423.75;5071794;28;20032;-83
2021/03/12 09:00:54;;;;;;;19.77;3.58;;;;;;;14.81;40.19;99430.38;5073696;28;20059;-83
2021/03/12 09:03:23;;;;;;;9.60;1.65;;;;;;;14.58;40.83;99435.97;5073669;28;20029;-82
2021/03/12 09:06:05;;;;;;;43.88;4.32;;;;;;;14.45;40.71;99429.88;5075733;28;20059;-87
2021/03/12 09:08:32;;;;;;;29.17;3.30;;;;;;;14.88;40.09;99428.50;5075194;28;20025;-84
2021/03/12 09:10:59;;;;;;;9.13;1.45;;;;;;;15.06;39.65;99417.75;5071805;28;20094;-78
2021/03/12 09:13:29;;;;;;;7.25;1.88;;;;;;;15.19;39.19;99426.56;5074751;28;20090;-78
2021/03/12 09:15:56;;;;;;;4.93;1.40;;;;;;;15.23;39.18;99428.16;5075204;28;20035;-77
2021/03/12 09:18:23;;;;;;;28.08;4.07;;;;;;;14.96;39.54;99429.41;5072782;28;20020;-77
2021/03/12 09:20:54;;;;;;;13.38;1.85;;;;;;;15.07;39.36;99435.03;5075017;28;20032;-79
2021/03/12 09:23:35;;;;;;;4.25;1.13;;;;;;;15.61;38.47;99437.25;5074985;28;20052;-83
2021/03/12 09:26:02;;;;;;;17.77;2.55;;;;;;;14.98;39.28;99433.38;5074101;28;20436;-79
2021/03/12 09:28:29;;;;;;;5.30;1.55;;;;;;;14.75;39.57;99427.19;5073079;28;20051;-82
2021/03/12 09:30:56;;;;;;;10.38;2.47;;;;;;;15.67;38.33;99440.47;5074860;28;20187;-80
2021/03/12 09:33:35;;;;;;;11.65;2.30;;;;;;;15.51;38.38;99449.72;5074796;28;20035;-82
2021/03/12 09:36:22;;;;;;;15.77;2.55;;;;;;;15.56;38.38;99421.03;5064265;28;20032;-83
2021/03/12 09:38:47;;;;;;;4.15;1.48;;;;;;;15.67;38.13;99451.47;5074861;28;20032;-82
2021/03/12 09:41:26;;;;;;;3.03;1.42;;;;;;;15.74;38.11;99448.78;5073725;28;20024;-83
2021/03/12 09:44:00;;;;;;;6.97;1.48;;;;;;;15.39;38.18;99449.97;5073589;28;20495;-80
2021/03/12 09:46:30;;;;;;;12.95;2.53;;;;;;;15.75;37.78;99461.38;5073067;28;20035;-81
2021/03/12 09:48:56;;;;;;;28.73;4.97;;;;;;;15.87;37.64;99461.13;5074563;28;20081;-81
2021/03/12 09:51:24;;;;;;;12.00;2.65;;;;;;;15.96;37.63;99469.06;5075017;28;20100;-81
2021/03/12 09:53:50;;;;;;;16.33;3.85;;;;;;;16.15;37.26;99459.78;5073739;28;20089;-82
2021/03/12 09:56:20;;;;;;;89.75;15.38;;;;;;;16.34;37.07;99476.88;5075746;28;20031;-81
2021/03/12 09:58:46;;;;;;;27.38;4.10;;;;;;;16.00;37.63;99464.38;5065940;28;20031;-90
2021/03/12 10:01:14;;;;;;;10.68;2.85;;;;;;;16.16;37.15;99469.63;5074671;28;20044;-92
2021/03/12 10:03:39;;;;;;;6.15;1.73;;;;;;;16.15;37.53;99459.78;5074909;28;20027;-82
2021/03/12 10:06:10;;;;;;;9.80;1.70;;;;;;;16.44;36.57;99461.56;5073760;28;20028;-83
2021/03/12 10:09:03;;;;;;;50.38;7.60;;;;;;;16.63;36.83;99468.81;5074988;28;20395;-90
2021/03/12 10:11:44;;;;;;;15.57;2.40;;;;;;;16.84;36.27;99479.19;5073620;28;20021;-85
2021/03/12 10:14:33;;;;;;;6.72;1.63;;;;;;;16.20;36.46;99473.22;5054656;28;20025;-84
2021/03/12 10:17:20;;;;;;;10.50;1.45;;;;;;;16.53;36.31;99484.09;5054110;28;20535;-86
2021/03/12 10:19:54;;;;;;;14.10;3.10;;;;;;;16.61;36.40;99462.88;5071617;28;20471;-82
2021/03/12 10:22:36;;;;;;;21.00;3.75;;;;;;;16.61;35.83;99471.91;5074068;28;20029;-86
2021/03/12 10:25:26;;;;;;;23.65;4.13;;;;;;;16.74;36.05;99463.38;5072554;28;20078;-88
2021/03/12 10:28:02;;;;;;;;;;;;;;;16.96;36.22;99461.53;5070609;28;20052;-87
2021/03/12 10:30:37;;;;;;;18.35;3.67;;;;;;;16.82;35.83;99451.19;5068345;28;19924;-81
2021/03/12 10:33:05;;;;;;;9.88;2.05;;;;;;;17.02;35.44;99448.94;5071458;28;20031;-88
2021/03/12 10:35:52;;;;;;;9.27;1.80;;;;;;;16.88;35.96;99447.69;5073175;28;20020;-83
2021/03/12 10:38:24;;;;;;;16.08;3.30;;;;;;;16.81;36.14;99452.38;5053711;28;20041;-81
2021/03/12 10:40:51;;;;;;;11.35;2.08;;;;;;;17.27;35.31;99438.00;5069142;28;20028;-82
2021/03/12 10:43:19;;;;;;;16.92;5.00;;;;;;;17.07;35.79;99449.34;5072174;28;20028;-82
2021/03/12 10:45:46;;;;;;;11.00;3.30;;;;;;;17.08;35.88;99442.66;5073513;28;20035;-81
2021/03/12 10:48:13;;;;;;;12.82;3.28;;;;;;;16.92;36.13;99448.47;5072637;28;20055;-86
2021/03/12 10:50:39;;;;;;;8.07;1.98;;;;;;;16.68;36.32;99438.09;5073809;28;20383;-83
2021/03/12 10:53:12;;;;;;;7.30;2.00;;;;;;;16.63;35.96;99438.47;5073412;28;20043;-80
2021/03/12 10:55:44;;;;;;;10.02;2.22;;;;;;;17.07;35.43;99438.31;5073566;28;20025;-82
2021/03/12 10:58:29;;;;;;;38.55;6.63;;;;;;;17.13;36.35;99439.50;5073675;28;20028;-81
2021/03/12 11:01:20;;;;;;;32.75;4.88;;;;;;;16.91;36.32;99446.91;5073178;28;20387;-87
2021/03/12 11:03:47;;;;;;;14.55;3.75;;;;;;;17.09;35.83;99441.50;5073180;28;20471;-82
2021/03/12 11:06:14;;;;;;;12.32;2.63;;;;;;;16.98;36.36;99431.56;5073371;28;20029;-89
2021/03/12 11:08:41;;;;;;;13.40;3.60;;;;;;;17.22;35.82;99438.38;5071328;28;20498;-83
2021/03/12 11:11:10;;;;;;;14.55;2.92;;;;;;;17.27;35.61;99432.47;5065038;28;20021;-84
2021/03/12 11:13:39;;;;;;;11.20;2.70;;;;;;;17.60;35.46;99450.69;5072943;28;20028;-87
2021/03/12 11:16:05;;;;;;;15.93;3.80;;;;;;;17.46;35.72;99441.22;5072047;28;20513;-87
2021/03/12 11:18:31;;;;;;;14.50;3.15;;;;;;;17.84;35.07;99430.66;5072198;28;20031;-87
2021/03/12 11:20:58;;;;;;;11.18;2.60;;;;;;;17.17;35.71;99442.31;5072952;28;20021;-88
2021/03/12 11:23:24;;;;;;;12.40;3.28;;;;;;;17.18;35.80;99444.66;5073232;28;20021;-86
2021/03/12 11:25:51;;;;;;;9.02;2.60;;;;;;;17.65;35.22;99440.06;5073579;28;20479;-87
2021/03/12 11:28:16;;;;;;;15.48;4.47;;;;;;;17.51;35.67;99440.03;5072157;28;20040;-82
2021/03/12 11:30:42;;;;;;;10.88;2.90;;;;;;;17.77;35.25;99440.91;5072566;28;20430;-86
2021/03/12 11:33:07;;;;;;;14.05;3.00;;;;;;;18.03;34.45;99432.25;5072795;28;20051;-84
2021/03/12 11:35:33;;;;;;;14.93;4.13;;;;;;;18.05;34.23;99431.84;5066263;28;20103;-85
2021/03/12 11:37:59;;;;;;;37.70;6.63;;;;;;;17.93;34.41;99427.50;5071000;28;20429;-83
2021/03/12 11:40:25;;;;;;;13.95;3.10;;;;;;;18.15;33.93;99431.06;5071691;28;20033;-82